Fairfax, VA

1:03 AM EDT on April 01, 2015 (GMT -0400)
Fairfax - Kings Park West (II) | | Change Station
CLOSE
Current Station
Personal Weather Station
Location: Fairfax, VA
Elevation: 397 ft
Nearby Weather Stations

Elev 397 ft 38.81 °N, 77.30 °W | Updated 27 seconds ago

Clear
Clear
41.4 °F
Feels Like 38 °F
N
5.1
Wind Variable Wind from NW
Gusts 6.7 mph

Today
High -- | Low -- °F
--% Chance of Precip.
Yesterday
High -- | Low -- °F
Precip. -- in
6:54 AM 7:32 PM
Waxing Gibbous, 90% visible
Pressure 29.93 in
Visibility 10.0 miles
Clouds Few 2600 ft
Windchill 38 °F
Dew Point 33 °F
Humidity 73%
Rainfall 0.00 in
Snow Depth Not available.
UV 0 out of 12
Pollen 9.20 out of 12
Air Quality Not available.
Flu Activity Not available.
METAR KDAA 010458Z AUTO 36007G19KT 220V030 10SM FEW026 07/01 A2993 RMK AO2 SLPNO T00650012 402250004

More Conditions Fewer Conditions

Pressure 29.93 in
Visibility 10.0 miles
Clouds Few 2600 ft
Windchill 38 °F
Dew Point 33 °F
Humidity 73%
Rainfall 0.00 in
Snow Depth Not available.
UV 0 out of 12
Pollen 9.20 out of 12
Air Quality Not available.
Flu Activity Not available.
METAR KDAA 010458Z AUTO 36007G19KT 220V030 10SM FEW026 07/01 A2993 RMK AO2 SLPNO T00650012 402250004

More Conditions Fewer Conditions

10-Day Weather Forecast

Almanac

Astronomy

Apr. 01, 2015 Rise Set
Actual Time
Civil Twilight
Nautical Twilight
Astronomical Twilight
Moon
Length of Visible Light
Length of Day
Tomorrow will be .
, % of the Moon is Illuminated

Today's Extremes

State Highs State Lows

Community

WunderPhotos

Upload Photos

1,809,919 photos uploaded!

WunderBlogs® & News

Nearby

Air Quality

  Air Quality AQ Index Pollutant
Not available.

Snow Depth

Station Depth Elevation

Earthquake Activity

City Distance Mag. Time & Date
Minimum magnitude displayed is 2.5.

Coastal Water Temperatures

Place Temperature

Stations

Nearby Weather Stations

Station Location Temp. Windchill Dew Point Humidity Wind Precip. Elev Updated Type